Time;durP1;ratioP1;P1;durP2;ratioP2;P2;SDS_P1;SDS_P2;PMS_P1;PMS_P2;Temp;Humidity;BMP_temperature;BMP_pressure;BME280_temperature;BME280_humidity;BME280_pressure;Samples;Min_cycle;Max_cycle;Signal;HPM_P1;HPM_P2
2022/12/21 00:00:51;;;;;;;;;;;4.70;99.90;;;;;;4867525;29;19927;-75
2022/12/21 00:03:17;;;;;;;;;;;4.60;99.90;;;;;;4871467;29;19931;-75
2022/12/21 00:05:43;;;;;;;;;;;4.60;99.90;;;;;;4852948;29;20349;-76
2022/12/21 00:08:08;;;;;;;;;;;4.50;99.90;;;;;;4841591;29;19948;-76
2022/12/21 00:10:34;;;;;;;;;;;4.50;99.90;;;;;;4855203;29;20629;-76
2022/12/21 00:12:59;;;;;;;;;;;4.40;99.90;;;;;;4871699;29;19931;-76
2022/12/21 00:15:25;;;;;;;;;;;4.30;99.90;;;;;;4856417;29;20285;-76
2022/12/21 00:17:51;;;;;;;;;;;4.30;99.90;;;;;;4841004;29;19928;-76
2022/12/21 00:20:16;;;;;;;;;;;4.20;99.90;;;;;;4866521;29;20187;-76
2022/12/21 00:22:42;;;;;;;;;;;4.10;99.90;;;;;;4871348;29;19936;-76
2022/12/21 00:25:07;;;;;;;;;;;4.10;99.90;;;;;;4838362;29;19927;-76
2022/12/21 00:27:33;;;;;;;;;;;4.00;99.90;;;;;;4869673;29;20403;-75
2022/12/21 00:29:59;;;;;;;;;;;4.00;99.90;;;;;;4859650;29;19927;-76
2022/12/21 00:32:24;;;;;;;;;;;3.90;99.90;;;;;;4838960;29;19923;-76
2022/12/21 00:34:50;;;;;;;;;;;3.80;99.90;;;;;;4851119;29;20285;-76
2022/12/21 00:37:15;;;;;;;;;;;3.80;99.90;;;;;;4850063;29;20513;-76
2022/12/21 00:39:41;;;;;;;;;;;3.70;99.90;;;;;;4863392;29;19983;-76
2022/12/21 00:42:06;;;;;;;;;;;3.70;99.90;;;;;;4847322;29;19996;-76
2022/12/21 00:44:32;;;;;;;;;;;3.60;99.90;;;;;;4847318;29;19927;-76
2022/12/21 00:46:58;;;;;;;;;;;3.60;99.90;;;;;;4854864;29;20428;-76
2022/12/21 00:49:23;;;;;;;;;;;3.60;99.90;;;;;;4854360;29;19927;-76
2022/12/21 00:51:49;;;;;;;;;;;3.60;99.90;;;;;;4856094;29;19981;-76
2022/12/21 00:54:14;;;;;;;;;;;3.60;99.90;;;;;;4866498;29;19928;-76
2022/12/21 00:56:40;;;;;;;;;;;3.60;99.90;;;;;;4839729;29;19924;-76
2022/12/21 00:59:06;;;;;;;;;;;3.60;99.90;;;;;;4855199;29;19947;-76
2022/12/21 01:01:32;;;;;;;;;;;3.60;99.90;;;;;;4852532;29;19924;-76
2022/12/21 01:03:58;;;;;;;;;;;3.50;99.90;;;;;;4868254;29;19927;-76
2022/12/21 01:06:25;;;;;;;;;;;3.50;99.90;;;;;;4855936;29;19971;-75
2022/12/21 01:08:51;;;;;;;;;;;3.50;99.90;;;;;;4871634;29;19923;-75
2022/12/21 01:11:17;;;;;;;;;;;3.40;99.90;;;;;;4853302;29;20448;-75
2022/12/21 01:13:43;;;;;;;;;;;3.40;99.90;;;;;;4868528;29;19927;-75
2022/12/21 01:16:13;;;;;;;;;;;3.40;99.90;;;;;;4870710;29;20309;-75
2022/12/21 01:18:38;;;;;;;;;;;3.30;99.90;;;;;;4848127;29;19928;-75
2022/12/21 01:21:04;;;;;;;;;;;3.30;99.90;;;;;;4853676;29;20389;-76
2022/12/21 01:23:30;;;;;;;;;;;3.30;99.90;;;;;;4858083;29;19939;-76
2022/12/21 01:25:55;;;;;;;;;;;3.20;99.90;;;;;;4864082;29;19973;-76
2022/12/21 01:28:21;;;;;;;;;;;3.20;99.90;;;;;;4871018;29;20316;-76
2022/12/21 01:30:46;;;;;;;;;;;3.20;99.90;;;;;;4859540;29;19928;-76
2022/12/21 01:33:13;;;;;;;;;;;3.20;99.90;;;;;;4852215;29;19923;-76
2022/12/21 01:35:40;;;;;;;;;;;3.20;99.90;;;;;;4870860;29;19931;-76
2022/12/21 01:38:06;;;;;;;;;;;3.20;99.90;;;;;;4870909;29;19975;-76
2022/12/21 01:40:31;;;;;;;;;;;3.20;99.90;;;;;;4852956;29;19923;-76
2022/12/21 01:42:58;;;;;;;;;;;3.20;99.90;;;;;;4857660;29;19927;-76
2022/12/21 01:45:30;;;;;;;;;;;3.20;99.90;;;;;;4855534;29;19983;-76
2022/12/21 01:48:00;;;;;;;;;;;3.20;99.90;;;;;;4853395;29;20381;-76
2022/12/21 01:50:49;;;;;;;;;;;3.10;99.90;;;;;;4854956;29;19924;-76
2022/12/21 01:53:24;;;;;;;;;;;3.20;99.90;;;;;;4888755;29;20388;-76
2022/12/21 01:55:51;;;;;;;;;;;3.20;99.90;;;;;;4855346;29;19923;-76
2022/12/21 01:58:18;;;;;;;;;;;3.20;99.90;;;;;;4870934;29;19928;-76
2022/12/21 02:00:43;;;;;;;;;;;3.20;99.90;;;;;;4855488;29;20050;-76
2022/12/21 02:03:12;;;;;;;;;;;3.20;99.90;;;;;;4859880;29;20021;-76
2022/12/21 02:05:47;;;;;;;;;;;3.20;99.90;;;;;;4858732;29;19996;-76
2022/12/21 02:08:13;;;;;;;;;;;3.20;99.90;;;;;;4874281;29;19947;-76
2022/12/21 02:10:39;;;;;;;;;;;3.10;99.90;;;;;;4859343;29;20450;-76
2022/12/21 02:13:07;;;;;;;;;;;3.10;99.90;;;;;;4858621;29;19934;-76
2022/12/21 02:15:53;;;;;;;;;;;3.10;99.90;;;;;;4858926;29;19959;-76
2022/12/21 02:18:37;;;;;;;;;;;3.20;99.90;;;;;;4870696;29;20396;-76
2022/12/21 02:21:29;;;;;;;;;;;3.20;99.90;;;;;;4872464;29;19931;-76
2022/12/21 02:24:03;;;;;;;;;;;3.10;99.90;;;;;;4865154;29;19928;-76
2022/12/21 02:26:48;;;;;;;;;;;3.10;99.90;;;;;;4874616;29;20832;-76
2022/12/21 02:29:19;;;;;;;;;;;3.10;99.90;;;;;;4861604;29;19930;-76
2022/12/21 02:31:54;;;;;;;;;;;3.10;99.90;;;;;;4870252;29;19934;-76
2022/12/21 02:34:41;;;;;;;;;;;3.10;99.90;;;;;;4858177;29;19978;-76
2022/12/21 02:37:12;;;;;;;;;;;3.00;99.90;;;;;;4873901;29;19930;-76
2022/12/21 02:39:59;;;;;;;;;;;3.00;99.90;;;;;;4874119;29;19924;-74
2022/12/21 02:45:25;;;;;;;;;;;3.00;99.90;;;;;;4873210;29;19932;-74
2022/12/21 02:47:55;;;;;;;;;;;2.90;99.90;;;;;;4871822;29;20285;-74
2022/12/21 02:50:24;;;;;;;;;;;2.90;99.90;;;;;;4868973;29;19928;-74
2022/12/21 02:52:49;;;;;;;;;;;2.90;99.90;;;;;;4871609;29;19931;-74
2022/12/21 02:55:15;;;;;;;;;;;2.90;99.90;;;;;;4855268;29;19928;-74
2022/12/21 02:57:42;;;;;;;;;;;2.80;99.90;;;;;;4857865;29;19931;-74
2022/12/21 03:00:09;;;;;;;;;;;2.80;99.90;;;;;;4858070;29;20376;-74
2022/12/21 03:02:44;;;;;;;;;;;2.70;99.90;;;;;;4857589;29;20174;-74
2022/12/21 03:05:12;;;;;;;;;;;2.70;99.90;;;;;;4873125;29;20457;-74
2022/12/21 03:07:46;;;;;;;;;;;2.70;99.90;;;;;;4857981;29;19924;-74
2022/12/21 03:10:15;;;;;;;;;;;2.70;99.90;;;;;;4857428;29;19970;-74
2022/12/21 03:12:53;;;;;;;;;;;2.60;99.90;;;;;;4857351;29;19935;-74
2022/12/21 03:15:18;;;;;;;;;;;2.50;99.90;;;;;;4845203;29;20014;-74
2022/12/21 03:17:53;;;;;;;;;;;2.40;99.90;;;;;;4858031;29;20499;-74
2022/12/21 03:20:22;;;;;;;;;;;2.40;99.90;;;;;;4869052;29;19928;-74
2022/12/21 03:22:50;;;;;;;;;;;2.40;99.90;;;;;;4872487;29;20328;-74
2022/12/21 03:25:23;;;;;;;;;;;2.40;99.90;;;;;;4857443;29;19928;-74
2022/12/21 03:27:51;;;;;;;;;;;2.40;99.90;;;;;;4869971;29;19928;-74
2022/12/21 03:30:18;;;;;;;;;;;2.30;99.90;;;;;;4861013;29;20395;-74
2022/12/21 03:32:50;;;;;;;;;;;2.30;99.90;;;;;;4871023;29;19984;-74
2022/12/21 03:35:20;;;;;;;;;;;2.30;99.90;;;;;;4860393;29;20291;-74
2022/12/21 03:37:47;;;;;;;;;;;2.20;99.90;;;;;;4857763;29;19950;-74
2022/12/21 03:40:16;;;;;;;;;;;2.20;99.90;;;;;;4870481;29;20626;-74
2022/12/21 03:42:45;;;;;;;;;;;2.20;99.90;;;;;;4854492;29;20031;-74
2022/12/21 03:45:13;;;;;;;;;;;2.20;99.90;;;;;;4872212;29;19947;-74
2022/12/21 03:47:44;;;;;;;;;;;2.20;99.90;;;;;;4867890;29;20304;-75
2022/12/21 03:50:13;;;;;;;;;;;2.20;99.90;;;;;;4865354;29;19931;-74
2022/12/21 03:52:42;;;;;;;;;;;2.20;99.90;;;;;;4887559;29;19964;-74
2022/12/21 03:55:14;;;;;;;;;;;2.20;99.90;;;;;;4854275;29;19979;-74
2022/12/21 03:57:40;;;;;;;;;;;2.20;99.90;;;;;;4857624;29;19924;-74
2022/12/21 04:00:06;;;;;;;;;;;2.30;99.90;;;;;;4836542;29;19924;-74
2022/12/21 04:02:40;;;;;;;;;;;2.30;99.90;;;;;;4856579;29;19938;-74
2022/12/21 04:05:25;;;;;;;;;;;2.30;99.90;;;;;;4867231;29;20018;-75
2022/12/21 04:07:51;;;;;;;;;;;2.30;99.90;;;;;;4847309;29;20389;-74
2022/12/21 04:10:18;;;;;;;;;;;2.30;99.90;;;;;;4852900;29;19928;-74
2022/12/21 04:12:46;;;;;;;;;;;2.40;99.90;;;;;;4871799;29;19927;-74
2022/12/21 04:15:19;;;;;;;;;;;2.40;99.90;;;;;;4849125;29;19930;-74
2022/12/21 04:17:46;;;;;;;;;;;2.40;99.90;;;;;;4853261;29;20389;-74
2022/12/21 04:20:19;;;;;;;;;;;2.40;99.90;;;;;;4858383;29;20149;-74
2022/12/21 04:28:17;;;;;;;;;;;2.30;99.90;;;;;;4860961;29;20074;-74
2022/12/21 04:30:44;;;;;;;;;;;2.30;99.90;;;;;;4853356;29;19928;-74
2022/12/21 04:33:11;;;;;;;;;;;2.30;99.90;;;;;;4856637;29;19971;-74
2022/12/21 04:35:37;;;;;;;;;;;2.30;99.90;;;;;;4868879;29;20014;-74
2022/12/21 04:38:03;;;;;;;;;;;2.30;99.90;;;;;;4856395;29;20015;-74
2022/12/21 04:40:28;;;;;;;;;;;2.20;99.90;;;;;;4856493;29;19928;-74
2022/12/21 04:42:54;;;;;;;;;;;2.20;99.90;;;;;;4867790;29;19935;-74
2022/12/21 04:45:20;;;;;;;;;;;2.20;99.90;;;;;;4871408;29;20297;-74
2022/12/21 04:47:45;;;;;;;;;;;2.20;99.90;;;;;;4859468;29;20190;-74
2022/12/21 04:50:11;;;;;;;;;;;2.20;99.90;;;;;;4855869;29;20372;-74
2022/12/21 04:52:37;;;;;;;;;;;2.20;99.90;;;;;;4880091;29;19931;-75
2022/12/21 04:55:03;;;;;;;;;;;2.20;99.90;;;;;;4871377;29;19924;-75
2022/12/21 04:57:29;;;;;;;;;;;2.20;99.90;;;;;;4855885;29;19932;-75
2022/12/21 04:59:54;;;;;;;;;;;2.30;99.90;;;;;;4854270;29;19927;-75
2022/12/21 05:02:20;;;;;;;;;;;2.40;99.90;;;;;;4852991;29;19928;-74
2022/12/21 05:04:45;;;;;;;;;;;2.40;99.90;;;;;;4852670;29;19954;-74
2022/12/21 05:07:11;;;;;;;;;;;2.50;99.90;;;;;;4855953;29;19979;-74
2022/12/21 05:09:36;;;;;;;;;;;2.50;99.90;;;;;;4840145;29;19924;-74
2022/12/21 05:12:02;;;;;;;;;;;2.50;99.90;;;;;;4855255;29;19924;-74
2022/12/21 05:14:28;;;;;;;;;;;2.60;99.90;;;;;;4870678;29;19924;-75
2022/12/21 05:16:53;;;;;;;;;;;2.60;99.90;;;;;;4871021;29;19951;-74
2022/12/21 05:19:19;;;;;;;;;;;2.60;99.90;;;;;;4839532;29;19991;-74
2022/12/21 05:21:45;;;;;;;;;;;2.60;99.90;;;;;;4852765;29;20023;-74
2022/12/21 05:24:11;;;;;;;;;;;2.60;99.90;;;;;;4859999;29;19931;-74
2022/12/21 05:26:37;;;;;;;;;;;2.60;99.90;;;;;;4870799;29;19928;-74
2022/12/21 05:29:02;;;;;;;;;;;2.60;99.90;;;;;;4842529;29;20296;-74
2022/12/21 05:31:29;;;;;;;;;;;2.60;99.90;;;;;;4881707;29;20432;-74
2022/12/21 05:33:55;;;;;;;;;;;2.60;99.90;;;;;;4858184;29;19927;-74
2022/12/21 05:36:21;;;;;;;;;;;2.70;99.90;;;;;;4870623;29;20384;-74
2022/12/21 05:38:47;;;;;;;;;;;2.70;99.90;;;;;;4855865;29;20433;-74
2022/12/21 05:41:13;;;;;;;;;;;2.70;99.90;;;;;;4850427;29;20357;-74
2022/12/21 05:43:39;;;;;;;;;;;2.70;99.90;;;;;;4853966;29;20329;-74
2022/12/21 05:46:06;;;;;;;;;;;2.70;99.90;;;;;;4837600;29;19928;-74
2022/12/21 05:48:32;;;;;;;;;;;2.80;99.90;;;;;;4871532;29;19934;-74
2022/12/21 05:50:57;;;;;;;;;;;2.80;99.90;;;;;;4855754;29;20006;-74
2022/12/21 05:53:23;;;;;;;;;;;2.80;99.90;;;;;;4871307;29;20455;-74
2022/12/21 05:55:49;;;;;;;;;;;2.90;99.90;;;;;;4835092;29;20004;-75
2022/12/21 05:58:15;;;;;;;;;;;2.90;99.90;;;;;;4853413;29;20375;-74
2022/12/21 06:00:40;;;;;;;;;;;3.00;99.90;;;;;;4837376;29;19979;-74
2022/12/21 06:03:06;;;;;;;;;;;3.00;99.90;;;;;;4855374;29;20000;-74
2022/12/21 06:05:35;;;;;;;;;;;3.00;99.90;;;;;;4855153;29;19931;-74
2022/12/21 06:08:01;;;;;;;;;;;3.10;99.90;;;;;;4871071;29;20289;-74
2022/12/21 06:10:26;;;;;;;;;;;3.10;99.90;;;;;;4848215;29;21163;-74
2022/12/21 06:12:52;;;;;;;;;;;3.20;99.90;;;;;;4833583;29;20460;-74
2022/12/21 06:15:17;;;;;;;;;;;3.20;99.90;;;;;;4849719;29;19976;-74
2022/12/21 06:17:43;;;;;;;;;;;3.30;99.90;;;;;;4851378;29;19969;-74
2022/12/21 06:20:09;;;;;;;;;;;3.30;99.90;;;;;;4868181;29;19934;-74
2022/12/21 06:22:34;;;;;;;;;;;3.30;99.90;;;;;;4831813;29;20289;-74
2022/12/21 06:25:01;;;;;;;;;;;3.30;99.90;;;;;;4855403;29;19939;-74
2022/12/21 06:27:26;;;;;;;;;;;3.30;99.90;;;;;;4868556;29;19924;-74
2022/12/21 06:29:52;;;;;;;;;;;3.30;99.90;;;;;;4856698;29;20876;-74
2022/12/21 06:32:17;;;;;;;;;;;3.30;99.90;;;;;;4855246;29;19927;-74
2022/12/21 06:34:43;;;;;;;;;;;3.40;99.90;;;;;;4852262;29;19938;-74
2022/12/21 06:37:09;;;;;;;;;;;3.40;99.90;;;;;;4853895;29;20597;-74
2022/12/21 06:39:35;;;;;;;;;;;3.40;99.90;;;;;;4839151;29;19924;-74
2022/12/21 06:42:01;;;;;;;;;;;3.40;99.90;;;;;;4838426;29;19983;-74
2022/12/21 06:44:27;;;;;;;;;;;3.40;99.90;;;;;;4849961;29;19963;-74
2022/12/21 06:46:52;;;;;;;;;;;3.40;99.90;;;;;;4851512;29;20022;-74
2022/12/21 06:49:18;;;;;;;;;;;3.40;99.90;;;;;;4856674;29;19932;-74
2022/12/21 06:51:43;;;;;;;;;;;3.40;99.90;;;;;;4858573;29;20050;-74
2022/12/21 06:54:10;;;;;;;;;;;3.40;99.90;;;;;;4872427;29;19954;-75
2022/12/21 06:56:36;;;;;;;;;;;3.40;99.90;;;;;;4873632;29;19963;-75
2022/12/21 06:59:01;;;;;;;;;;;3.40;99.90;;;;;;4858936;29;20507;-75
2022/12/21 07:01:28;;;;;;;;;;;3.40;99.90;;;;;;4859190;29;19924;-74
2022/12/21 07:03:54;;;;;;;;;;;3.40;99.90;;;;;;4864524;29;20011;-74
2022/12/21 07:06:21;;;;;;;;;;;3.50;99.90;;;;;;4875017;29;20574;-74
2022/12/21 07:08:47;;;;;;;;;;;3.50;99.90;;;;;;4874732;29;19927;-74
2022/12/21 07:11:14;;;;;;;;;;;3.50;99.90;;;;;;4851251;29;19931;-74
2022/12/21 07:13:41;;;;;;;;;;;3.50;99.90;;;;;;4874943;29;19963;-74
2022/12/21 07:16:07;;;;;;;;;;;3.50;99.90;;;;;;4874643;29;20406;-75
2022/12/21 07:18:34;;;;;;;;;;;3.60;99.90;;;;;;4878779;29;20372;-75
2022/12/21 07:21:02;;;;;;;;;;;3.60;99.90;;;;;;4868001;29;20304;-75
2022/12/21 07:23:28;;;;;;;;;;;3.60;99.90;;;;;;4856911;29;20267;-74
2022/12/21 07:25:54;;;;;;;;;;;3.60;99.90;;;;;;4856236;29;19967;-74
2022/12/21 07:28:20;;;;;;;;;;;3.70;99.90;;;;;;4840997;29;19931;-74
2022/12/21 07:30:48;;;;;;;;;;;3.70;99.90;;;;;;4844844;29;19944;-74
2022/12/21 07:33:18;;;;;;;;;;;3.70;99.90;;;;;;4857913;29;19932;-75
2022/12/21 07:35:44;;;;;;;;;;;3.70;99.90;;;;;;4852300;29;20395;-74
2022/12/21 07:38:09;;;;;;;;;;;3.70;99.90;;;;;;4835099;29;20015;-74
2022/12/21 07:40:35;;;;;;;;;;;3.80;99.90;;;;;;4866050;29;19963;-74
2022/12/21 07:43:05;;;;;;;;;;;3.80;99.90;;;;;;4868243;29;19928;-75
2022/12/21 07:45:31;;;;;;;;;;;3.80;99.90;;;;;;4854909;29;19931;-74
2022/12/21 07:47:57;;;;;;;;;;;3.70;99.90;;;;;;4841005;29;19927;-75
2022/12/21 07:50:22;;;;;;;;;;;3.70;99.90;;;;;;4855967;29;20368;-75
2022/12/21 07:52:48;;;;;;;;;;;3.70;99.90;;;;;;4856705;29;20304;-75
2022/12/21 07:55:13;;;;;;;;;;;3.70;99.90;;;;;;4854714;29;20311;-75
2022/12/21 07:57:39;;;;;;;;;;;3.70;99.90;;;;;;4840258;29;19946;-75
2022/12/21 08:00:05;;;;;;;;;;;3.70;99.90;;;;;;4840036;29;19935;-75
2022/12/21 08:02:30;;;;;;;;;;;3.70;99.90;;;;;;4856014;29;19987;-75
2022/12/21 08:04:57;;;;;;;;;;;3.70;99.90;;;;;;4871240;29;20431;-75
2022/12/21 08:07:22;;;;;;;;;;;3.70;99.90;;;;;;4869649;29;19928;-74
2022/12/21 08:09:48;;;;;;;;;;;3.70;99.90;;;;;;4840640;29;19934;-74
2022/12/21 08:12:14;;;;;;;;;;;3.80;99.90;;;;;;4869745;29;20399;-74
2022/12/21 08:14:39;;;;;;;;;;;3.80;99.90;;;;;;4871611;29;19930;-74
2022/12/21 08:17:05;;;;;;;;;;;3.80;99.90;;;;;;4856823;29;20479;-74
2022/12/21 08:19:30;;;;;;;;;;;3.80;99.90;;;;;;4838235;29;19923;-74
2022/12/21 08:21:56;;;;;;;;;;;3.80;99.90;;;;;;4856334;29;19938;-75
2022/12/21 08:24:21;;;;;;;;;;;3.80;99.90;;;;;;4878597;29;19924;-75
2022/12/21 08:26:47;;;;;;;;;;;3.90;99.90;;;;;;4853819;29;20279;-75
2022/12/21 08:29:13;;;;;;;;;;;3.90;99.90;;;;;;4849462;29;19936;-75
2022/12/21 08:31:39;;;;;;;;;;;3.90;99.90;;;;;;4870200;29;19932;-75
2022/12/21 08:34:05;;;;;;;;;;;3.90;99.90;;;;;;4856532;29;19971;-74
2022/12/21 08:36:30;;;;;;;;;;;3.90;99.90;;;;;;4856320;29;20015;-74
2022/12/21 08:38:57;;;;;;;;;;;3.90;99.90;;;;;;4851582;29;20342;-74
2022/12/21 08:41:22;;;;;;;;;;;3.90;99.90;;;;;;4871879;29;20510;-74
2022/12/21 08:43:51;;;;;;;;;;;4.00;99.90;;;;;;4869104;29;20009;-74
2022/12/21 08:46:16;;;;;;;;;;;4.00;99.90;;;;;;4856658;29;19935;-74
2022/12/21 08:48:42;;;;;;;;;;;4.00;99.90;;;;;;4840773;29;19927;-74
2022/12/21 08:51:08;;;;;;;;;;;4.00;99.90;;;;;;4853645;29;19982;-74
2022/12/21 08:53:34;;;;;;;;;;;4.10;99.90;;;;;;4850170;29;19978;-74
2022/12/21 08:55:59;;;;;;;;;;;4.20;99.90;;;;;;4854401;29;19931;-74
2022/12/21 08:58:25;;;;;;;;;;;4.20;99.90;;;;;;4853681;29;19980;-74
2022/12/21 09:00:55;;;;;;;;;;;4.20;99.90;;;;;;4837592;29;20372;-74
2022/12/21 09:03:21;;;;;;;;;;;4.30;99.90;;;;;;4855608;29;19991;-74
2022/12/21 09:05:47;;;;;;;;;;;4.30;99.90;;;;;;4855689;29;19974;-74
2022/12/21 09:08:13;;;;;;;;;;;4.30;99.90;;;;;;4855602;29;19965;-74
2022/12/21 09:10:39;;;;;;;;;;;4.30;99.90;;;;;;4874984;29;19932;-74
2022/12/21 09:13:04;;;;;;;;;;;4.40;99.90;;;;;;4871440;29;20385;-74
2022/12/21 09:15:30;;;;;;;;;;;4.50;99.90;;;;;;4840663;29;20300;-74
2022/12/21 09:17:56;;;;;;;;;;;4.50;99.90;;;;;;4870905;29;20031;-74
2022/12/21 09:20:21;;;;;;;;;;;4.60;99.90;;;;;;4855465;29;20384;-74
2022/12/21 09:22:47;;;;;;;;;;;4.60;99.90;;;;;;4855307;29;19995;-74
2022/12/21 09:25:12;;;;;;;;;;;4.70;99.90;;;;;;4870528;29;19930;-74
2022/12/21 09:27:39;;;;;;;;;;;4.70;99.90;;;;;;4855944;29;20359;-74
2022/12/21 09:30:05;;;;;;;;;;;4.70;99.90;;;;;;4871942;29;19986;-74
2022/12/21 09:32:32;;;;;;;;;;;4.80;99.90;;;;;;4871295;29;19967;-74
2022/12/21 09:34:57;;;;;;;;;;;4.80;99.90;;;;;;4842831;29;20355;-74
2022/12/21 09:37:23;;;;;;;;;;;4.90;99.90;;;;;;4853367;29;19934;-75
2022/12/21 09:39:48;;;;;;;;;;;4.90;99.90;;;;;;4852542;29;20429;-75
2022/12/21 09:42:22;;;;;;;;;;;4.90;99.90;;;;;;4850199;29;19932;-74
2022/12/21 09:44:47;;;;;;;;;;;5.00;99.90;;;;;;4870507;29;19928;-74
2022/12/21 09:47:33;;;;;;;;;;;5.00;99.90;;;;;;4868623;29;20270;-74
2022/12/21 09:50:01;;;;;;;;;;;5.10;99.90;;;;;;4883057;29;19931;-74
2022/12/21 09:52:29;;;;;;;;;;;5.10;99.90;;;;;;4871384;29;20347;-74
2022/12/21 09:55:00;;;;;;;;;;;5.20;99.90;;;;;;4870664;29;19949;-74
2022/12/21 09:57:29;;;;;;;;;;;5.30;99.90;;;;;;4871650;29;20429;-74
2022/12/21 09:59:55;;;;;;;;;;;5.30;99.90;;;;;;4870475;29;19931;-74
2022/12/21 10:02:40;;;;;;;;;;;5.30;99.90;;;;;;4851919;29;19932;-74
2022/12/21 10:05:09;;;;;;;;;;;5.40;99.90;;;;;;4869045;29;20545;-74
2022/12/21 10:07:52;;;;;;;;;;;5.50;99.90;;;;;;4869716;29;19996;-74
2022/12/21 10:10:30;;;;;;;;;;;5.50;99.90;;;;;;4870638;29;19924;-74
2022/12/21 10:12:56;;;;;;;;;;;5.40;99.90;;;;;;4852443;29;19930;-74
2022/12/21 10:15:37;;;;;;;;;;;5.40;99.90;;;;;;4855199;29;19928;-74
2022/12/21 10:18:20;;;;;;;;;;;5.30;99.90;;;;;;4855254;29;20217;-74
2022/12/21 10:20:54;;;;;;;;;;;5.30;99.90;;;;;;4857685;29;20252;-74
2022/12/21 10:23:34;;;;;;;;;;;5.30;99.90;;;;;;4846588;29;19931;-74
2022/12/21 10:26:02;;;;;;;;;;;5.30;99.90;;;;;;4858934;29;19935;-74
2022/12/21 10:28:33;;;;;;;;;;;5.30;99.90;;;;;;4871346;29;20376;-74
2022/12/21 10:31:09;;;;;;;;;;;5.30;99.90;;;;;;4850653;29;19928;-75
2022/12/21 10:33:42;;;;;;;;;;;5.40;99.90;;;;;;4874113;29;20221;-75
2022/12/21 10:36:15;;;;;;;;;;;5.40;99.90;;;;;;4856491;29;19932;-75
2022/12/21 10:38:41;;;;;;;;;;;5.40;99.90;;;;;;4873980;29;19927;-74
2022/12/21 10:41:09;;;;;;;;;;;5.50;99.90;;;;;;4858185;29;20312;-74
2022/12/21 10:43:37;;;;;;;;;;;5.60;99.90;;;;;;4873436;29;19963;-74
2022/12/21 10:46:02;;;;;;;;;;;5.60;99.90;;;;;;4873666;29;19971;-74
2022/12/21 10:48:28;;;;;;;;;;;5.60;99.90;;;;;;4874285;29;19966;-74
2022/12/21 10:51:11;;;;;;;;;;;5.60;99.90;;;;;;4840014;29;20027;-74
2022/12/21 10:53:36;;;;;;;;;;;5.60;99.90;;;;;;4857654;29;19980;-74
2022/12/21 10:56:02;;;;;;;;;;;5.60;99.90;;;;;;4871222;29;19932;-74
2022/12/21 10:58:29;;;;;;;;;;;5.60;99.90;;;;;;4856174;29;19948;-74
2022/12/21 11:00:56;;;;;;;;;;;5.70;99.90;;;;;;4854842;29;20511;-74
2022/12/21 11:03:21;;;;;;;;;;;5.70;99.90;;;;;;4866593;29;20427;-74
2022/12/21 11:05:47;;;;;;;;;;;5.70;99.90;;;;;;4857976;29;19928;-74
2022/12/21 11:08:12;;;;;;;;;;;5.70;99.90;;;;;;4853915;29;20300;-74
2022/12/21 11:10:38;;;;;;;;;;;5.70;99.90;;;;;;4888615;29;19976;-74
2022/12/21 11:13:05;;;;;;;;;;;5.60;99.90;;;;;;4871492;29;19996;-74
2022/12/21 11:15:31;;;;;;;;;;;5.60;99.90;;;;;;4873656;29;19946;-74
2022/12/21 11:17:57;;;;;;;;;;;5.70;99.90;;;;;;4855658;29;19953;-74
2022/12/21 11:20:23;;;;;;;;;;;5.70;99.90;;;;;;4870569;29;19928;-74
2022/12/21 11:22:50;;;;;;;;;;;5.80;99.90;;;;;;4847931;29;19932;-74
2022/12/21 11:25:17;;;;;;;;;;;5.80;99.90;;;;;;4862557;29;20753;-74
2022/12/21 11:27:47;;;;;;;;;;;5.90;99.90;;;;;;4872590;29;19971;-74
2022/12/21 11:30:17;;;;;;;;;;;5.90;99.90;;;;;;4875726;29;20405;-74
2022/12/21 11:32:44;;;;;;;;;;;6.00;99.90;;;;;;4857499;29;19928;-74
2022/12/21 11:35:17;;;;;;;;;;;6.00;99.90;;;;;;4857199;29;20023;-74
2022/12/21 11:37:47;;;;;;;;;;;6.00;99.90;;;;;;4873053;29;19932;-74
2022/12/21 11:40:23;;;;;;;;;;;6.10;99.90;;;;;;4872625;29;19927;-74
2022/12/21 11:42:51;;;;;;;;;;;6.10;99.90;;;;;;4871596;29;20440;-74
2022/12/21 11:45:20;;;;;;;;;;;6.10;99.90;;;;;;4880200;29;19950;-74
2022/12/21 11:47:48;;;;;;;;;;;6.10;99.90;;;;;;4872076;29;20282;-74
2022/12/21 11:50:26;;;;;;;;;;;6.10;99.90;;;;;;4856788;29;20355;-74
2022/12/21 11:53:04;;;;;;;;;;;6.10;99.90;;;;;;4857363;29;20416;-74
2022/12/21 11:55:45;;;;;;;;;;;6.10;99.90;;;;;;4856348;29;20376;-74
2022/12/21 11:58:20;;;;;;;;;;;6.10;99.90;;;;;;4863409;29;20288;-74
2022/12/21 12:00:52;;;;;;;;;;;6.10;99.90;;;;;;4871118;29;19996;-74
2022/12/21 12:03:24;;;;;;;;;;;6.10;99.90;;;;;;4856349;29;19932;-74
2022/12/21 12:06:14;;;;;;;;;;;6.10;99.90;;;;;;4871857;29;20229;-74
2022/12/21 12:08:52;;;;;;;;;;;6.10;99.90;;;;;;4856701;29;19935;-74
2022/12/21 12:11:30;;;;;;;;;;;6.20;99.90;;;;;;4872391;29;19967;-74
2022/12/21 12:14:08;;;;;;;;;;;6.20;99.90;;;;;;4872702;29;20324;-74
2022/12/21 12:16:51;;;;;;;;;;;6.20;99.90;;;;;;4855890;29;20014;-74
2022/12/21 12:19:20;;;;;;;;;;;6.30;99.90;;;;;;4872646;29;20163;-74
2022/12/21 12:21:57;;;;;;;;;;;6.30;99.90;;;;;;4855807;29;19935;-74
2022/12/21 12:24:46;;;;;;;;;;;6.30;99.90;;;;;;4872272;29;20047;-74
2022/12/21 12:27:11;;;;;;;;;;;6.40;99.90;;;;;;4904176;29;19934;-74
2022/12/21 12:29:43;;;;;;;;;;;6.40;99.90;;;;;;4856999;29;19999;-74
2022/12/21 12:32:27;;;;;;;;;;;6.30;99.90;;;;;;4856433;29;19924;-74
2022/12/21 12:34:53;;;;;;;;;;;6.30;99.90;;;;;;4871881;29;19931;-74
2022/12/21 12:37:28;;;;;;;;;;;6.30;99.90;;;;;;4856546;29;19962;-74
2022/12/21 12:40:20;;;;;;;;;;;6.40;99.90;;;;;;4870103;29;20167;-74
2022/12/21 12:42:51;;;;;;;;;;;6.40;99.90;;;;;;4856149;29;20030;-74
2022/12/21 12:45:40;;;;;;;;;;;6.40;99.90;;;;;;4855739;29;19942;-74
2022/12/21 12:48:13;;;;;;;;;;;6.40;99.90;;;;;;4859303;29;19935;-74
2022/12/21 12:50:42;;;;;;;;;;;6.50;99.90;;;;;;4871070;29;19983;-74
2022/12/21 12:53:28;;;;;;;;;;;6.50;99.90;;;;;;4853086;29;19928;-73
2022/12/21 12:56:13;;;;;;;;;;;6.50;99.90;;;;;;4856189;29;19928;-75
2022/12/21 12:58:56;;;;;;;;;;;6.60;99.90;;;;;;4868757;29;20036;-74
2022/12/21 13:01:32;;;;;;;;;;;6.60;99.90;;;;;;4861346;29;19976;-74
2022/12/21 13:04:16;;;;;;;;;;;6.60;99.90;;;;;;4855484;29;19938;-74
2022/12/21 13:07:00;;;;;;;;;;;6.70;99.90;;;;;;4855972;29;20003;-74
2022/12/21 13:09:51;;;;;;;;;;;6.80;99.90;;;;;;4855358;29;20052;-74
2022/12/21 13:12:17;;;;;;;;;;;6.80;99.90;;;;;;4863984;29;20393;-73
2022/12/21 13:14:46;;;;;;;;;;;6.80;99.90;;;;;;4871468;29;19924;-73
2022/12/21 13:17:18;;;;;;;;;;;6.80;99.90;;;;;;4855782;29;19924;-74
2022/12/21 13:19:45;;;;;;;;;;;6.80;99.90;;;;;;4871146;29;20005;-74
2022/12/21 13:22:12;;;;;;;;;;;6.80;99.90;;;;;;4854989;29;19931;-73
2022/12/21 13:24:40;;;;;;;;;;;6.70;99.90;;;;;;4870782;29;19924;-73
2022/12/21 13:27:07;;;;;;;;;;;6.70;99.90;;;;;;4860782;29;19928;-73
2022/12/21 13:29:39;;;;;;;;;;;6.70;99.90;;;;;;4872740;29;19990;-73
2022/12/21 13:32:13;;;;;;;;;;;6.70;99.90;;;;;;4870859;29;19934;-74
2022/12/21 13:34:42;;;;;;;;;;;6.70;99.90;;;;;;4859812;29;19927;-73
2022/12/21 13:37:10;;;;;;;;;;;6.70;99.90;;;;;;4855290;29;19924;-73
2022/12/21 13:39:39;;;;;;;;;;;6.70;99.90;;;;;;4858127;29;19927;-73
2022/12/21 13:42:09;;;;;;;;;;;6.60;99.90;;;;;;4870746;29;19932;-73
2022/12/21 13:44:39;;;;;;;;;;;6.60;99.90;;;;;;4855322;29;19938;-74
2022/12/21 13:47:05;;;;;;;;;;;6.60;99.90;;;;;;4845553;29;20296;-73
2022/12/21 13:49:50;;;;;;;;;;;6.60;99.90;;;;;;4864200;29;19924;-73
2022/12/21 13:52:27;;;;;;;;;;;6.60;99.90;;;;;;4870496;29;20046;-74
2022/12/21 13:55:02;;;;;;;;;;;6.60;99.90;;;;;;4855952;29;19928;-73
2022/12/21 13:57:28;;;;;;;;;;;6.60;99.90;;;;;;4872011;29;19924;-74
2022/12/21 14:00:09;;;;;;;;;;;6.60;99.90;;;;;;4859236;29;19927;-74
2022/12/21 14:02:40;;;;;;;;;;;6.60;99.90;;;;;;4858972;29;19932;-74
2022/12/21 14:05:11;;;;;;;;;;;6.60;99.90;;;;;;4855799;29;19970;-74
2022/12/21 14:07:55;;;;;;;;;;;6.60;99.90;;;;;;4862540;29;19927;-74
2022/12/21 14:10:22;;;;;;;;;;;6.60;99.90;;;;;;4855720;29;19971;-74
2022/12/21 14:12:56;;;;;;;;;;;6.50;99.90;;;;;;4873968;29;20399;-74
2022/12/21 14:15:28;;;;;;;;;;;6.50;99.90;;;;;;4859202;29;19931;-74
2022/12/21 14:17:56;;;;;;;;;;;6.50;99.90;;;;;;4874769;29;19934;-74
2022/12/21 14:20:27;;;;;;;;;;;6.50;99.90;;;;;;4857233;29;19924;-74
2022/12/21 14:23:04;;;;;;;;;;;6.50;99.90;;;;;;4873208;29;19938;-74
2022/12/21 14:25:30;;;;;;;;;;;6.50;99.90;;;;;;4848678;29;20388;-74
2022/12/21 14:28:04;;;;;;;;;;;6.50;99.90;;;;;;4857342;29;19975;-74
2022/12/21 14:30:30;;;;;;;;;;;6.50;99.90;;;;;;4876143;29;19995;-74
2022/12/21 14:32:59;;;;;;;;;;;6.40;99.90;;;;;;4858241;29;19946;-74
2022/12/21 14:35:29;;;;;;;;;;;6.40;99.90;;;;;;4857350;29;20142;-74
2022/12/21 14:38:25;;;;;;;;;;;6.40;99.90;;;;;;4858898;29;20363;-74
2022/12/21 14:40:58;;;;;;;;;;;6.40;99.90;;;;;;4858859;29;19979;-74
2022/12/21 14:43:24;;;;;;;;;;;6.40;99.90;;;;;;4848081;29;20384;-74
2022/12/21 14:45:49;;;;;;;;;;;6.40;99.90;;;;;;4858360;29;19979;-74
2022/12/21 14:48:42;;;;;;;;;;;6.40;99.90;;;;;;4857922;29;19927;-74
2022/12/21 14:51:09;;;;;;;;;;;6.40;99.90;;;;;;4871752;29;20036;-74